Time;durP1;ratioP1;P1;durP2;ratioP2;P2;SDS_P1;SDS_P2;PMS_P1;PMS_P2;Temp;Humidity;BMP_temperature;BMP_pressure;BME280_temperature;BME280_humidity;BME280_pressure;Samples;Min_cycle;Max_cycle;Signal;HPM_P1;HPM_P2
2022/05/28 00:00:29;;;;;;;4.03;1.40;;;12.70;99.90;;;;;;20742712;28;20175;-77
2022/05/28 00:10:33;;;;;;;1.93;1.23;;;12.50;99.90;;;;;;20770683;28;20030;-76
2022/05/28 00:20:34;;;;;;;2.60;1.33;;;12.00;99.90;;;;;;20753314;28;20507;-76
2022/05/28 00:30:35;;;;;;;3.37;2.27;;;11.80;99.90;;;;;;20750953;28;20136;-78
2022/05/28 00:40:36;;;;;;;2.57;1.50;;;11.60;99.90;;;;;;20733578;28;20292;-78
2022/05/28 00:50:38;;;;;;;2.07;1.30;;;12.00;99.90;;;;;;20748968;28;20418;-77
2022/05/28 01:00:39;;;;;;;3.80;1.52;;;12.10;99.90;;;;;;20751699;28;20037;-77
2022/05/28 01:10:52;;;;;;;2.13;1.47;;;11.70;99.90;;;;;;20766201;28;20496;-77
2022/05/28 01:20:59;;;;;;;3.78;1.10;;;11.00;99.90;;;;;;20731676;28;20026;-78
2022/05/28 01:31:02;;;;;;;3.50;1.58;;;11.20;99.90;;;;;;20769379;28;20061;-78
2022/05/28 01:41:06;;;;;;;2.78;1.50;;;11.20;99.90;;;;;;20744205;28;20046;-76
2022/05/28 01:51:09;;;;;;;5.13;1.73;;;10.90;99.90;;;;;;20741268;28;20041;-77
2022/05/28 02:01:10;;;;;;;2.45;1.52;;;10.80;99.90;;;;;;20721544;28;20034;-78
2022/05/28 02:11:18;;;;;;;3.03;1.92;;;10.70;99.90;;;;;;20758243;28;20034;-78
2022/05/28 02:31:29;;;;;;;4.10;1.40;;;10.30;99.90;;;;;;20740302;28;20420;-72
2022/05/28 02:41:30;;;;;;;5.47;1.92;;;10.30;99.90;;;;;;20752790;28;20034;-72
2022/05/28 02:51:31;;;;;;;3.83;2.00;;;10.10;99.90;;;;;;20752011;28;20029;-72
2022/05/28 03:01:33;;;;;;;2.20;1.50;;;10.10;99.90;;;;;;20750068;28;20030;-72
2022/05/28 03:11:36;;;;;;;4.55;1.90;;;10.00;99.90;;;;;;20749385;28;20042;-72
2022/05/28 03:21:37;;;;;;;2.88;1.90;;;9.90;99.90;;;;;;20748550;28;20489;-72
2022/05/28 03:31:37;;;;;;;5.70;2.80;;;9.70;99.90;;;;;;20828751;28;20112;-71
2022/05/28 03:41:40;;;;;;;4.87;2.40;;;9.70;99.90;;;;;;20828887;28;20056;-71
2022/05/28 03:51:41;;;;;;;4.40;2.63;;;9.30;99.90;;;;;;20827982;28;20044;-71
2022/05/28 04:01:41;;;;;;;3.03;1.90;;;9.20;99.90;;;;;;20828440;28;20033;-72
2022/05/28 04:11:42;;;;;;;6.53;2.23;;;9.40;99.90;;;;;;20826887;28;20033;-71
2022/05/28 04:21:43;;;;;;;4.47;2.37;;;9.30;99.90;;;;;;20826094;28;20041;-71
2022/05/28 04:31:44;;;;;;;9.37;2.57;;;9.30;99.90;;;;;;20825778;28;20057;-71
2022/05/28 04:41:45;;;;;;;7.03;2.40;;;9.60;99.90;;;;;;20824929;28;20037;-72
2022/05/28 04:51:45;;;;;;;7.53;3.17;;;10.00;99.90;;;;;;20824849;28;20033;-71
2022/05/28 05:01:46;;;;;;;6.33;2.67;;;10.40;99.90;;;;;;20824568;28;20028;-72
2022/05/28 05:11:47;;;;;;;4.83;2.60;;;11.00;99.90;;;;;;20824150;28;20049;-72
2022/05/28 05:21:48;;;;;;;4.93;3.03;;;11.50;99.90;;;;;;20823693;28;20060;-71
2022/05/28 05:31:49;;;;;;;4.27;2.73;;;11.90;99.90;;;;;;20823536;28;20553;-72
2022/05/28 05:41:49;;;;;;;4.00;2.53;;;12.00;99.90;;;;;;20822894;28;20025;-73
2022/05/28 05:51:51;;;;;;;5.80;3.07;;;12.40;99.90;;;;;;20831366;28;20136;-73
2022/05/28 06:01:52;;;;;;;9.80;2.60;;;12.90;99.90;;;;;;20838049;28;20047;-74
2022/05/28 06:11:53;;;;;;;9.87;2.90;;;13.30;99.90;;;;;;20836028;28;20487;-74
2022/05/28 06:21:58;;;;;;;9.60;3.60;;;14.00;99.90;;;;;;20835357;28;20025;-75
2022/05/28 06:31:58;;;;;;;7.53;3.15;;;14.10;99.90;;;;;;20834618;28;20030;-74
2022/05/28 06:41:59;;;;;;;7.43;3.30;;;14.80;99.90;;;;;;20827445;28;20387;-75
2022/05/28 06:52:00;;;;;;;8.53;5.23;;;14.90;99.90;;;;;;20822422;28;20033;-73
2022/05/28 07:02:01;;;;;;;6.47;3.67;;;14.80;99.90;;;;;;20876607;28;20024;-74
2022/05/28 07:12:02;;;;;;;7.57;3.43;;;15.40;99.90;;;;;;20813615;28;20068;-74
2022/05/28 07:22:03;;;;;;;5.90;3.10;;;15.80;99.90;;;;;;20751755;28;20036;-74
2022/05/28 07:32:05;;;;;;;7.07;3.10;;;16.20;99.90;;;;;;20772449;28;20026;-74
2022/05/28 07:42:06;;;;;;;8.48;2.60;;;16.90;99.90;;;;;;20787670;28;20041;-74
2022/05/28 07:52:07;;;;;;;3.70;2.00;;;17.40;99.90;;;;;;20781592;28;20041;-74
2022/05/28 08:02:08;;;;;;;;;;;18.20;99.90;;;;;;20827777;28;20034;-74
2022/05/28 08:12:09;;;;;;;2.77;1.73;;;17.30;99.90;;;;;;20826447;28;19915;-74
2022/05/28 08:32:29;;;;;;;7.85;2.78;;;18.80;99.90;;;;;;20873195;28;20091;-77
2022/05/28 08:42:30;;;;;;;6.00;2.30;;;19.10;99.90;;;;;;20909872;28;20032;-76
2022/05/28 08:52:38;;;;;;;4.07;1.95;;;19.90;99.90;;;;;;20840503;28;20026;-76
2022/05/28 09:03:09;;;;;;;3.60;1.83;;;19.10;99.90;;;;;;20837073;28;20052;-76
2022/05/28 09:13:24;;;;;;;5.32;2.85;;;19.60;99.90;;;;;;20816782;28;20444;-77
2022/05/28 09:23:25;;;;;;;4.00;1.50;;;20.40;99.90;;;;;;20830459;28;20041;-77
2022/05/28 09:33:36;;;;;;;3.00;1.33;;;21.30;99.90;;;;;;20838926;28;20025;-76
2022/05/28 09:43:45;;;;;;;7.63;2.65;;;19.20;99.90;;;;;;20832489;28;20030;-76
2022/05/28 10:14:28;;;;;;;5.20;2.20;;;18.50;99.90;;;;;;20814469;28;20041;-77
2022/05/28 10:24:40;;;;;;;4.47;1.75;;;18.90;99.90;;;;;;20825231;28;20037;-76
2022/05/28 10:34:41;;;;;;;6.03;2.30;;;19.30;99.90;;;;;;20812651;28;20037;-76
2022/05/28 10:44:43;;;;;;;8.00;1.63;;;20.30;99.90;;;;;;20823726;28;20222;-76
2022/05/28 10:55:07;;;;;;;3.72;1.75;;;20.00;99.90;;;;;;20818849;28;20030;-76
2022/05/28 11:05:29;;;;;;;5.97;1.90;;;20.70;99.90;;;;;;20745296;28;20029;-76
2022/05/28 11:15:55;;;;;;;3.38;1.40;;;20.40;99.90;;;;;;20804460;28;20048;-78
2022/05/28 11:25:59;;;;;;;6.45;1.65;;;20.00;99.90;;;;;;20809548;28;20029;-78
2022/05/28 11:36:07;;;;;;;5.28;1.42;;;20.00;99.90;;;;;;20808259;28;20503;-78
2022/05/28 11:46:25;;;;;;;6.07;1.60;;;20.40;99.90;;;;;;20805835;28;20029;-77
2022/05/28 11:56:28;;;;;;;4.80;1.38;;;20.00;99.90;;;;;;20788026;28;20044;-77
2022/05/28 12:06:34;;;;;;;3.53;1.30;;;20.10;99.90;;;;;;20806523;28;20041;-77
2022/05/28 12:16:41;;;;;;;4.88;1.42;;;20.20;99.90;;;;;;20800529;28;20040;-78
2022/05/28 12:27:08;;;;;;;4.65;1.42;;;20.20;99.90;;;;;;20813853;28;20090;-78
2022/05/28 12:37:17;;;;;;;5.32;1.42;;;21.30;99.90;;;;;;20797096;28;20046;-77
2022/05/28 12:47:29;;;;;;;4.72;1.30;;;20.30;99.90;;;;;;20863447;28;20038;-77
2022/05/28 12:57:34;;;;;;;4.97;1.37;;;20.40;99.90;;;;;;20810193;28;20405;-75
2022/05/28 13:07:44;;;;;;;5.75;1.38;;;20.90;99.90;;;;;;20822250;28;20543;-77
2022/05/28 13:18:06;;;;;;;7.47;1.08;;;22.40;99.90;;;;;;20853744;28;20039;-76
2022/05/28 13:28:12;;;;;;;7.70;2.60;;;20.00;99.90;;;;;;20880240;28;20455;-75
2022/05/28 13:38:35;;;;;;;6.22;1.00;;;19.90;99.90;;;;;;20901595;28;20465;-75
2022/05/28 13:48:45;;;;;;;2.22;1.00;;;20.30;99.90;;;;;;20778448;28;20148;-75
2022/05/28 13:58:46;;;;;;;8.32;1.15;;;21.00;99.90;;;;;;20818290;28;20037;-76
2022/05/28 14:08:51;;;;;;;;;;;21.10;99.90;;;;;;20816431;28;20581;-76
2022/05/28 14:18:56;;;;;;;4.03;1.15;;;22.00;99.90;;;;;;20797486;28;20654;-75
2022/05/28 14:28:57;;;;;;;5.03;1.23;;;22.80;99.90;;;;;;20835851;22;20691;-73
2022/05/28 14:39:09;;;;;;;7.43;1.80;;;21.60;99.90;;;;;;20872487;28;20164;-74
2022/05/28 14:49:37;;;;;;;4.93;1.63;;;19.60;99.90;;;;;;20854981;28;20021;-74
2022/05/28 14:59:42;;;;;;;3.03;1.17;;;19.40;99.90;;;;;;20848308;28;20045;-73
2022/05/28 15:09:50;;;;;;;3.90;1.10;;;19.80;99.90;;;;;;20833957;28;20163;-74
2022/05/28 15:19:52;;;;;;;6.38;1.00;;;19.60;99.90;;;;;;20876403;28;20047;-74
2022/05/28 15:29:54;;;;;;;3.80;1.02;;;20.60;99.90;;;;;;20834294;28;20526;-74
2022/05/28 15:39:54;;;;;;;;;;;19.70;99.90;;;;;;20850089;28;20040;-74
2022/05/28 15:49:57;;;;;;;2.77;0.73;;;20.40;99.90;;;;;;20914881;28;19987;-74
2022/05/28 15:59:59;;;;;;;1.77;0.90;;;20.80;99.90;;;;;;20887611;28;20506;-74
2022/05/28 16:09:59;;;;;;;7.20;1.10;;;20.80;99.90;;;;;;20869072;28;20124;-74
2022/05/28 16:20:01;;;;;;;1.30;0.50;;;21.00;99.90;;;;;;20869437;28;20037;-73
2022/05/28 16:30:07;;;;;;;4.03;0.93;;;20.30;99.90;;;;;;20886590;28;20025;-74
2022/05/28 16:40:08;;;;;;;2.63;0.60;;;20.40;99.90;;;;;;20888176;28;20122;-73
2022/05/28 16:50:10;;;;;;;4.90;0.82;;;19.30;99.90;;;;;;20885241;28;20052;-73
2022/05/28 17:00:12;;;;;;;1.85;0.85;;;18.80;99.90;;;;;;20811730;28;20037;-73
2022/05/28 17:10:13;;;;;;;60.67;31.42;;;18.70;99.90;;;;;;20862431;28;20059;-74
2022/05/28 17:20:16;;;;;;;156.10;71.77;;;18.30;99.90;;;;;;20879913;28;20400;-73
2022/05/28 17:30:16;;;;;;;4.80;1.58;;;18.40;99.90;;;;;;20852260;28;20103;-73
2022/05/28 17:40:19;;;;;;;42.10;23.33;;;18.10;99.90;;;;;;20901969;28;20032;-73
2022/05/28 17:50:21;;;;;;;6.18;2.05;;;17.80;99.90;;;;;;20915368;28;20033;-73
2022/05/28 18:00:26;;;;;;;5.68;0.90;;;17.50;99.90;;;;;;20817028;28;20048;-73
2022/05/28 18:10:27;;;;;;;10.80;5.95;;;17.30;99.90;;;;;;20829917;28;20041;-73
2022/05/28 18:20:34;;;;;;;3.77;1.27;;;17.10;99.90;;;;;;20884411;28;20418;-73
2022/05/28 18:30:35;;;;;;;4.60;1.63;;;17.00;99.90;;;;;;20894489;28;20032;-73
2022/05/28 18:40:38;;;;;;;8.87;3.90;;;16.50;99.90;;;;;;20896106;28;20041;-73
2022/05/28 18:50:40;;;;;;;12.27;8.13;;;16.50;99.90;;;;;;20864051;28;20458;-73
2022/05/28 19:00:41;;;;;;;11.35;5.55;;;16.50;99.90;;;;;;20843921;28;20036;-73
2022/05/28 19:10:43;;;;;;;9.90;2.70;;;16.30;99.90;;;;;;20851136;28;20027;-73
2022/05/28 19:20:46;;;;;;;5.35;0.90;;;16.20;99.90;;;;;;20862023;28;20107;-73
2022/05/28 19:30:48;;;;;;;3.88;1.10;;;15.30;99.90;;;;;;20911873;28;20028;-72
2022/05/28 19:40:50;;;;;;;;;;;15.10;99.90;;;;;;20908527;28;20442;-73
2022/05/28 19:50:51;;;;;;;51.05;29.92;;;15.20;99.90;;;;;;20898433;28;19913;-73
2022/05/28 20:00:53;;;;;;;6.90;3.20;;;15.20;99.90;;;;;;20897919;28;20545;-72
2022/05/28 20:10:54;;;;;;;4.15;2.72;;;15.10;99.90;;;;;;20905010;28;20021;-72
2022/05/28 20:20:55;;;;;;;4.73;1.03;;;14.70;99.90;;;;;;20895506;28;20073;-73
2022/05/28 20:30:56;;;;;;;3.57;1.33;;;14.30;99.90;;;;;;20847824;23;20042;-77
2022/05/28 20:40:57;;;;;;;4.10;2.00;;;13.60;99.90;;;;;;20825576;28;20033;-76
2022/05/28 20:50:58;;;;;;;12.77;4.87;;;13.60;99.90;;;;;;20825471;28;20065;-76
2022/05/28 21:01:00;;;;;;;21.33;13.60;;;13.60;99.90;;;;;;20834574;28;20102;-76
2022/05/28 21:11:01;;;;;;;11.52;2.40;;;13.70;99.90;;;;;;20823873;28;20040;-77
2022/05/28 21:21:06;;;;;;;8.00;2.20;;;13.60;99.90;;;;;;20832135;28;20548;-76
2022/05/28 21:31:07;;;;;;;6.28;1.35;;;13.60;99.90;;;;;;20836592;28;20078;-76
2022/05/28 21:41:08;;;;;;;3.53;1.27;;;13.50;99.90;;;;;;20838158;28;20132;-77
2022/05/28 21:51:11;;;;;;;3.00;1.10;;;13.30;99.90;;;;;;20837082;28;20040;-76
2022/05/28 22:01:20;;;;;;;4.20;1.08;;;13.00;99.90;;;;;;20836473;28;20071;-76
2022/05/28 22:11:21;;;;;;;6.35;1.13;;;12.40;99.90;;;;;;20832269;28;20032;-75
2022/05/28 22:21:22;;;;;;;1.27;0.67;;;12.10;99.90;;;;;;20834498;28;20042;-76
2022/05/28 22:31:24;;;;;;;4.40;1.03;;;12.00;99.90;;;;;;20831746;28;20044;-77
2022/05/28 22:41:25;;;;;;;2.38;0.98;;;12.00;99.90;;;;;;20833018;28;20057;-75
2022/05/28 22:51:26;;;;;;;1.73;0.90;;;11.90;99.90;;;;;;20833556;28;20065;-77
2022/05/28 23:01:27;;;;;;;1.37;0.90;;;11.30;99.90;;;;;;20839747;28;20045;-76
2022/05/28 23:11:28;;;;;;;4.27;0.97;;;10.90;99.90;;;;;;20836675;28;20383;-77
2022/05/28 23:21:35;;;;;;;3.83;1.20;;;11.20;99.90;;;;;;20827948;28;20040;-77
2022/05/28 23:31:44;;;;;;;5.05;1.23;;;10.80;99.90;;;;;;20829133;28;20049;-76
2022/05/28 23:41:44;;;;;;;2.75;1.10;;;10.80;99.90;;;;;;20827090;28;20048;-76
2022/05/28 23:51:46;;;;;;;4.87;1.03;;;10.70;99.90;;;;;;20829068;28;20377;-77
